Time;durP1;ratioP1;P1;durP2;ratioP2;P2;SDS_P1;SDS_P2;PMS_P1;PMS_P2;Temp;Humidity;BMP_temperature;BMP_pressure;BME280_temperature;BME280_humidity;BME280_pressure;Samples;Min_cycle;Max_cycle;Signal;HPM_P1;HPM_P2
2023/04/06 00:00:12;;;;;;;;;35.25;28.25;;;;;14.95;34.68;101312.78;5076718;28;45288;-74
2023/04/06 00:02:37;;;;;;;;;25.50;22.25;;;;;14.95;34.72;101313.66;5061139;28;45893;-74
2023/04/06 00:05:03;;;;;;;;;27.75;24.00;;;;;14.95;34.69;101311.00;5060929;28;45390;-74
2023/04/06 00:07:29;;;;;;;;;26.00;24.75;;;;;14.97;34.44;101305.69;5061208;28;46703;-74
2023/04/06 00:09:55;;;;;;;;;29.75;24.25;;;;;14.93;34.58;101291.63;5060943;28;45411;-74
2023/04/06 00:12:20;;;;;;;;;30.50;24.75;;;;;14.95;34.98;101302.19;5059606;28;47848;-75
2023/04/06 00:14:46;;;;;;;;;34.00;30.50;;;;;14.94;34.70;101298.69;5061016;28;45224;-76
2023/04/06 00:17:11;;;;;;;;;32.00;28.25;;;;;14.91;34.97;101298.72;5060991;28;45292;-75
2023/04/06 00:19:36;;;;;;;;;21.50;21.50;;;;;14.90;34.84;101297.00;5060660;28;45304;-76
2023/04/06 00:22:02;;;;;;;;;26.75;25.75;;;;;14.90;35.22;101291.69;5060643;28;46237;-76
2023/04/06 00:24:27;;;;;;;;;38.25;30.50;;;;;14.89;34.60;101292.63;5060817;28;45332;-77
2023/04/06 00:26:53;;;;;;;;;31.00;27.25;;;;;14.89;34.76;101292.63;5060834;28;45238;-76
2023/04/06 00:29:18;;;;;;;;;33.75;27.25;;;;;14.87;34.88;101286.50;5060837;28;45375;-76
2023/04/06 00:31:43;;;;;;;;;29.25;25.75;;;;;14.84;35.37;101286.56;5060383;27;45246;-76
2023/04/06 00:34:10;;;;;;;;;26.00;22.75;;;;;14.83;34.92;101281.28;5093507;27;45258;-77
2023/04/06 00:36:35;;;;;;;;;31.75;27.75;;;;;14.83;35.12;101284.84;5060520;28;45252;-76
2023/04/06 00:39:00;;;;;;;;;30.75;24.50;;;;;14.82;35.31;101283.09;5060514;28;45340;-76
2023/04/06 00:41:26;;;;;;;;;28.75;26.00;;;;;14.82;35.33;101283.09;5060346;28;46926;-76
2023/04/06 00:43:51;;;;;;;;;27.75;26.25;;;;;14.81;35.27;101278.69;5060698;28;45288;-76
2023/04/06 00:46:17;;;;;;;;;34.00;29.00;;;;;14.79;35.58;101276.09;5059841;28;45399;-76
2023/04/06 00:48:42;;;;;;;;;28.50;26.00;;;;;14.79;35.43;101281.38;5060513;28;45355;-77
2023/04/06 00:51:07;;;;;;;;;29.75;26.50;;;;;14.76;35.45;101270.00;5059808;28;45525;-76
2023/04/06 00:53:33;;;;;;;;;33.50;27.00;;;;;14.78;35.59;101270.84;5060359;27;45325;-77
2023/04/06 00:55:58;;;;;;;;;30.75;24.25;;;;;14.76;35.45;101268.22;5075866;28;45389;-77
2023/04/06 00:58:24;;;;;;;;;31.00;25.75;;;;;14.77;35.46;101269.09;5061056;28;45375;-77
2023/04/06 01:00:50;;;;;;;;;29.50;27.50;;;;;14.75;35.07;101265.59;5075652;28;47325;-76
2023/04/06 01:03:15;;;;;;;;;27.25;26.00;;;;;14.76;35.69;101272.66;5060150;28;45334;-77
2023/04/06 01:05:42;;;;;;;;;34.75;29.25;;;;;14.73;35.36;101264.75;5075687;28;45250;-77
2023/04/06 01:08:07;;;;;;;;;28.00;26.25;;;;;14.74;35.48;101261.22;5060301;28;45373;-77
2023/04/06 01:10:33;;;;;;;;;29.50;28.00;;;;;14.72;35.11;101255.13;5059694;28;45952;-77
2023/04/06 01:12:58;;;;;;;;;29.00;24.50;;;;;14.74;35.30;101258.56;5060219;28;45303;-77
2023/04/06 01:15:25;;;;;;;;;30.00;25.00;;;;;14.69;35.36;101245.47;5060095;28;45247;-77
2023/04/06 01:17:51;;;;;;;;;28.00;25.00;;;;;14.70;35.74;101248.97;5060295;28;45582;-77
2023/04/06 01:20:16;;;;;;;;;29.25;25.75;;;;;14.69;35.50;101239.28;5059529;28;45702;-77
2023/04/06 01:22:41;;;;;;;;;28.00;26.25;;;;;14.69;35.38;101237.53;5060153;28;45372;-77
2023/04/06 01:25:08;;;;;;;;;33.00;28.00;;;;;14.69;35.57;101241.94;5059820;28;45323;-77
2023/04/06 01:27:33;;;;;;;;;36.00;28.25;;;;;14.67;35.68;101241.13;5060211;28;45308;-77
2023/04/06 01:29:59;;;;;;;;;31.25;27.50;;;;;14.69;36.03;101234.00;5059774;28;46037;-77
2023/04/06 01:32:25;;;;;;;;;30.75;27.50;;;;;14.63;35.54;101224.41;5059946;28;45278;-77
2023/04/06 01:34:50;;;;;;;;;28.00;20.50;;;;;14.67;36.10;101233.19;5059620;28;45387;-77
2023/04/06 01:37:16;;;;;;;;;33.25;26.50;;;;;14.65;35.60;101229.69;5059855;28;45489;-77
2023/04/06 01:39:43;;;;;;;;;31.25;29.00;;;;;14.63;36.08;101227.94;5092203;27;46060;-77
2023/04/06 01:42:08;;;;;;;;;31.00;28.25;;;;;14.64;36.31;101226.16;5058597;28;45311;-77
2023/04/06 01:44:34;;;;;;;;;37.75;30.50;;;;;14.62;36.31;101220.03;5062924;28;45252;-76
2023/04/06 01:46:59;;;;;;;;;34.25;30.25;;;;;14.63;36.27;101229.72;5059715;27;45655;-77
2023/04/06 01:49:24;;;;;;;;;26.00;24.75;;;;;14.63;36.19;101227.94;5059130;28;46262;-77
2023/04/06 01:51:50;;;;;;;;;31.75;27.75;;;;;14.60;36.31;101222.72;5059549;28;45215;-77
2023/04/06 01:54:15;;;;;;;;;31.75;26.00;;;;;14.62;36.22;101226.19;5059604;28;45243;-77
2023/04/06 01:56:41;;;;;;;;;34.00;28.75;;;;;14.62;36.01;101215.59;5060542;28;45596;-76
2023/04/06 01:59:06;;;;;;;;;28.25;24.50;;;;;14.61;36.18;101213.84;5063567;28;47026;-77
2023/04/06 02:01:32;;;;;;;;;30.25;28.50;;;;;14.60;36.13;101209.50;5063166;28;45439;-77
2023/04/06 02:03:57;;;;;;;;;34.50;27.75;;;;;14.62;36.10;101212.09;5063201;28;45386;-76
2023/04/06 02:06:22;;;;;;;;;35.50;30.00;;;;;14.61;36.24;101213.00;5062897;28;45393;-76
2023/04/06 02:08:48;;;;;;;;;32.25;27.50;;;;;14.56;36.19;101205.16;5062934;28;45595;-76
2023/04/06 02:11:13;;;;;;;;;30.75;26.25;;;;;14.59;36.07;101207.75;5062739;28;45416;-76
2023/04/06 02:13:38;;;;;;;;;33.00;30.00;;;;;14.56;36.43;101207.81;5063188;28;45477;-76
2023/04/06 02:16:04;;;;;;;;;31.50;28.00;;;;;14.58;36.46;101211.28;5057421;28;45676;-76
2023/04/06 02:18:30;;;;;;;;;26.25;23.00;;;;;14.56;36.76;101207.81;5056856;28;45295;-76
2023/04/06 02:20:56;;;;;;;;;33.00;29.75;;;;;14.53;36.40;101210.53;5058439;28;45665;-76
2023/04/06 02:23:21;;;;;;;;;36.25;30.25;;;;;14.49;36.47;101211.53;5059090;28;45362;-76
2023/04/06 02:25:46;;;;;;;;;33.00;30.50;;;;;14.41;36.93;101209.03;5058917;28;45707;-77
2023/04/06 02:28:12;;;;;;;;;31.00;26.25;;;;;14.40;36.99;101215.25;5058403;28;45462;-76
2023/04/06 02:30:37;;;;;;;;;29.00;26.25;;;;;14.38;36.71;101216.19;5059033;28;45525;-76
2023/04/06 02:33:03;;;;;;;;;30.25;28.25;;;;;14.34;36.63;101217.13;5058849;28;45635;-76
2023/04/06 02:35:30;;;;;;;;;29.50;28.00;;;;;14.28;37.18;101203.16;5058617;28;45493;-75
2023/04/06 02:37:55;;;;;;;;;26.50;24.75;;;;;14.28;37.01;101204.94;5058525;28;46128;-76
2023/04/06 02:40:20;;;;;;;;;31.75;27.25;;;;;14.25;37.29;101191.78;5058769;28;45438;-76
2023/04/06 02:42:46;;;;;;;;;30.75;26.75;;;;;14.26;37.26;101198.81;5058962;28;45556;-76
2023/04/06 02:45:11;;;;;;;;;29.00;26.25;;;;;14.26;37.55;101188.22;5058990;28;45453;-75
2023/04/06 02:47:36;;;;;;;;;19.25;17.50;;;;;14.26;37.12;101194.41;5058654;28;46208;-75
2023/04/06 02:50:02;;;;;;;;;26.25;24.00;;;;;14.26;37.14;101186.47;5057939;28;45327;-75
2023/04/06 02:52:27;;;;;;;;;32.25;27.50;;;;;14.27;37.22;101187.34;5058852;28;45437;-76
2023/04/06 02:54:53;;;;;;;;;27.25;22.50;;;;;14.27;37.46;101185.53;5057985;28;45581;-75
2023/04/06 02:57:18;;;;;;;;;29.00;27.50;;;;;14.28;37.24;101182.00;5058093;28;46262;-76
2023/04/06 02:59:43;;;;;;;;;28.50;22.75;;;;;14.27;37.53;101180.25;5058656;28;45507;-76
2023/04/06 03:02:09;;;;;;;;;27.25;27.25;;;;;14.27;37.45;101179.41;5058722;28;45481;-76
2023/04/06 03:04:34;;;;;;;;;24.75;21.00;;;;;14.23;37.55;101175.94;5058053;28;45532;-75
2023/04/06 03:06:59;;;;;;;;;28.25;26.00;;;;;14.23;37.67;101175.09;5056713;28;47267;-76
2023/04/06 03:09:25;;;;;;;;;27.50;25.50;;;;;14.23;37.50;101183.03;5073192;27;46355;-75
2023/04/06 03:11:50;;;;;;;;;23.50;21.25;;;;;14.22;37.50;101182.13;5058045;28;45340;-76
2023/04/06 03:14:17;;;;;;;;;25.25;24.50;;;;;14.21;37.58;101190.97;5057146;28;45464;-75
2023/04/06 03:16:43;;;;;;;;;25.75;20.75;;;;;14.19;37.61;101195.44;5058877;27;45437;-75
2023/04/06 03:19:08;;;;;;;;;32.50;27.75;;;;;14.20;37.44;101198.94;5057615;28;45157;-75
2023/04/06 03:21:33;;;;;;;;;25.50;25.25;;;;;14.17;37.74;101189.31;5058220;28;45409;-75
2023/04/06 03:23:58;;;;;;;;;27.50;27.25;;;;;14.17;37.59;101199.88;5057779;28;45419;-76
2023/04/06 03:26:24;;;;;;;;;28.50;26.00;;;;;14.16;38.05;101195.50;5057995;28;46297;-75
2023/04/06 03:28:49;;;;;;;;;29.75;27.00;;;;;14.14;37.68;101184.09;5057535;28;45216;-75
2023/04/06 03:31:14;;;;;;;;;32.00;29.00;;;;;14.13;37.82;101183.22;5058402;28;45224;-75
2023/04/06 03:33:40;;;;;;;;;27.50;24.75;;;;;14.12;38.29;101181.50;5058156;28;45438;-74
2023/04/06 03:36:06;;;;;;;;;28.00;26.25;;;;;14.11;38.11;101179.75;5057263;28;47074;-74
2023/04/06 03:38:32;;;;;;;;;29.75;27.50;;;;;14.11;37.56;101190.31;5057753;28;45487;-76
2023/04/06 03:40:57;;;;;;;;;26.75;26.50;;;;;14.12;38.21;101175.31;5057504;28;45452;-74
2023/04/06 03:43:22;;;;;;;;;28.75;27.75;;;;;14.11;37.90;101174.47;5073337;28;45257;-75
2023/04/06 03:45:48;;;;;;;;;27.25;24.75;;;;;14.08;38.24;101169.22;5057456;28;46477;-74
2023/04/06 03:48:13;;;;;;;;;34.00;30.25;;;;;14.13;37.99;101172.63;5058066;28;45438;-74
2023/04/06 03:50:39;;;;;;;;;28.50;26.50;;;;;14.07;37.90;101166.63;5057731;28;46563;-75
2023/04/06 03:53:04;;;;;;;;;28.75;25.25;;;;;14.15;38.39;101180.56;5057341;28;45398;-74
2023/04/06 03:55:30;;;;;;;;;24.75;24.25;;;;;14.16;38.10;101178.78;5057388;28;47050;-74
2023/04/06 03:57:55;;;;;;;;;19.25;16.00;;;;;14.17;38.66;101175.22;5056834;27;45576;-74
2023/04/06 04:00:20;;;;;;;;;28.50;23.50;;;;;14.15;38.36;101170.00;5057615;28;45442;-74
2023/04/06 04:02:46;;;;;;;;;25.75;22.75;;;;;14.18;38.60;101175.19;5057871;28;45600;-74
2023/04/06 04:05:11;;;;;;;;;26.25;25.25;;;;;14.17;38.23;101173.44;5057519;28;45537;-75
2023/04/06 04:07:37;;;;;;;;;27.00;25.25;;;;;14.17;38.70;101169.94;5057437;28;45825;-74
2023/04/06 04:10:02;;;;;;;;;28.50;24.75;;;;;14.18;38.70;101163.75;5057001;28;45286;-73
2023/04/06 04:12:28;;;;;;;;;25.50;23.00;;;;;14.19;38.29;101171.66;5057379;28;45840;-74
2023/04/06 04:14:53;;;;;;;;;27.00;24.25;;;;;14.21;38.77;101175.09;5056881;28;46555;-74
2023/04/06 04:17:19;;;;;;;;;26.00;25.25;;;;;14.21;38.54;101177.75;5057368;28;45444;-75
2023/04/06 04:19:45;;;;;;;;;28.00;24.75;;;;;14.22;38.50;101181.28;5056771;28;45442;-75
2023/04/06 04:22:10;;;;;;;;;28.25;27.50;;;;;14.21;38.77;101175.09;5056888;28;45371;-74
2023/04/06 04:24:35;;;;;;;;;21.50;21.50;;;;;14.19;38.87;101169.00;5057158;28;45968;-74
2023/04/06 04:27:01;;;;;;;;;30.25;25.50;;;;;14.20;38.85;101172.50;5056745;28;45375;-74
2023/04/06 04:29:26;;;;;;;;;64.25;50.75;;;;;14.21;38.57;101169.81;5056350;28;45517;-74
2023/04/06 04:31:52;;;;;;;;;25.50;24.00;;;;;14.21;38.60;101166.31;5055346;28;45454;-74
2023/04/06 04:34:20;;;;;;;;;25.00;23.00;;;;;14.22;38.66;101166.28;5056764;28;46099;-75
2023/04/06 04:36:45;;;;;;;;;30.00;26.25;;;;;14.22;38.84;101176.00;5057083;28;45467;-74
2023/04/06 04:39:11;;;;;;;;;26.50;25.00;;;;;14.14;38.82;101160.31;5057115;28;45708;-75
2023/04/06 04:41:36;;;;;;;;;28.25;25.50;;;;;14.15;38.90;101170.00;5055610;28;45371;-75
2023/04/06 04:44:02;;;;;;;;;29.25;28.25;;;;;14.14;38.88;101179.66;5056500;28;47301;-75
2023/04/06 04:46:27;;;;;;;;;30.50;26.00;;;;;14.11;39.36;101173.56;5056820;28;45618;-75
2023/04/06 04:48:52;;;;;;;;;28.25;22.25;;;;;14.12;39.31;101183.25;5056556;28;45492;-75
2023/04/06 04:51:19;;;;;;;;;26.50;25.50;;;;;14.10;39.00;101179.75;5056288;27;45444;-75
2023/04/06 04:53:45;;;;;;;;;26.25;24.25;;;;;14.05;39.01;101174.59;5057005;28;45442;-74
2023/04/06 04:56:10;;;;;;;;;27.25;27.25;;;;;14.08;39.17;101176.31;5056680;28;45408;-75
2023/04/06 04:58:35;;;;;;;;;28.75;28.75;;;;;14.07;39.43;101179.84;5056581;28;45529;-74
2023/04/06 05:01:01;;;;;;;;;27.50;26.00;;;;;14.00;39.38;101165.91;5056253;28;45308;-75
2023/04/06 05:03:27;;;;;;;;;30.50;27.00;;;;;14.06;39.46;101175.47;5056469;28;45478;-76
2023/04/06 05:05:52;;;;;;;;;31.50;26.50;;;;;14.05;39.08;101179.00;5055854;28;45266;-75
2023/04/06 05:08:18;;;;;;;;;24.75;20.25;;;;;14.05;39.31;101181.63;5056686;28;45310;-76
2023/04/06 05:10:44;;;;;;;;;27.50;25.25;;;;;14.01;39.32;101179.97;5056698;28;45509;-76
2023/04/06 05:13:10;;;;;;;;;27.00;25.75;;;;;14.03;39.50;101196.69;5055109;27;47514;-76
2023/04/06 05:15:37;;;;;;;;;25.75;23.50;;;;;13.99;39.57;101201.16;5056444;28;45950;-75
2023/04/06 05:18:06;;;;;;;;;25.75;25.75;;;;;13.89;39.29;101189.91;5056241;28;46022;-76
2023/04/06 05:20:31;;;;;;;;;22.75;22.75;;;;;13.86;39.61;101194.38;5055827;28;45503;-76
2023/04/06 05:22:57;;;;;;;;;27.25;21.75;;;;;13.82;39.54;101193.56;5054622;28;47208;-76
2023/04/06 05:25:22;;;;;;;;;25.75;21.75;;;;;13.77;39.92;101201.59;5056128;28;45540;-75
2023/04/06 05:27:48;;;;;;;;;30.50;24.00;;;;;13.71;39.68;101193.81;5056273;28;45656;-75
2023/04/06 05:30:14;;;;;;;;;25.00;24.25;;;;;13.71;39.80;101200.84;5089117;27;45614;-75
2023/04/06 05:32:40;;;;;;;;;23.50;20.50;;;;;13.65;39.79;101189.50;5056019;28;46233;-76
2023/04/06 05:35:05;;;;;;;;;25.00;22.00;;;;;13.66;39.94;101198.31;5055614;28;45663;-75
2023/04/06 05:37:31;;;;;;;;;24.75;23.50;;;;;13.63;39.95;101191.31;5071984;28;45450;-75
2023/04/06 05:39:56;;;;;;;;;25.25;23.50;;;;;13.63;40.11;101198.34;5055554;28;45487;-76
2023/04/06 05:42:22;;;;;;;;;27.25;24.75;;;;;13.61;39.80;101206.31;5056135;28;45908;-76
2023/04/06 05:44:48;;;;;;;;;21.50;20.25;;;;;13.58;39.96;101206.34;5056050;28;45179;-73
2023/04/06 05:47:13;;;;;;;;;23.75;22.50;;;;;13.57;40.32;101215.19;5055233;28;45403;-71
2023/04/06 05:49:38;;;;;;;;;28.00;25.00;;;;;13.51;40.20;101220.59;5055830;28;45553;-78
2023/04/06 05:52:04;;;;;;;;;21.75;21.75;;;;;13.45;40.38;101215.44;5054152;28;47016;-70
2023/04/06 05:54:29;;;;;;;;;24.00;23.00;;;;;13.43;40.24;101211.94;5055791;28;45429;-76
2023/04/06 05:56:55;;;;;;;;;21.25;19.50;;;;;13.39;40.48;101213.75;5055640;28;45371;-72
2023/04/06 05:59:20;;;;;;;;;24.00;22.00;;;;;13.36;40.45;101218.19;5056290;27;45430;-77
2023/04/06 06:01:46;;;;;;;;;28.00;26.25;;;;;13.26;40.18;101202.53;5055788;28;45558;-77
2023/04/06 06:04:11;;;;;;;;;32.00;27.25;;;;;13.27;40.35;101216.56;5055902;28;45474;-73
2023/04/06 06:06:36;;;;;;;;;27.75;24.00;;;;;13.25;40.25;101221.03;5056004;28;45480;-78
2023/04/06 06:09:03;;;;;;;;;25.75;23.25;;;;;13.20;40.57;101212.31;5055241;28;45382;-75
2023/04/06 06:11:29;;;;;;;;;27.50;21.50;;;;;13.20;40.52;101214.97;5054011;28;47183;-70
2023/04/06 06:13:55;;;;;;;;;24.00;23.50;;;;;13.18;40.46;101212.31;5054907;28;45503;-76
2023/04/06 06:16:20;;;;;;;;;26.50;25.25;;;;;13.19;40.34;101221.13;5055701;28;45529;-74
2023/04/06 06:18:46;;;;;;;;;24.75;22.50;;;;;13.16;40.55;101220.28;5070926;28;46350;-74
2023/04/06 06:21:12;;;;;;;;;29.00;25.25;;;;;13.16;40.75;101220.28;5055543;27;46233;-74
2023/04/06 06:23:38;;;;;;;;;25.00;23.00;;;;;13.15;40.49;101215.91;5054109;28;45529;-74
2023/04/06 06:26:04;;;;;;;;;25.75;23.00;;;;;13.13;40.64;101209.78;5055318;28;45730;-74
2023/04/06 06:28:29;;;;;;;;;26.00;23.25;;;;;13.17;40.68;101216.75;5054502;28;45683;-75
2023/04/06 06:30:55;;;;;;;;;22.25;21.00;;;;;13.17;40.60;101216.75;5054542;28;46341;-75
2023/04/06 06:33:20;;;;;;;;;23.75;22.75;;;;;13.19;40.69;101224.63;5055355;28;45387;-75
2023/04/06 06:35:45;;;;;;;;;27.50;22.00;;;;;13.19;40.89;101229.06;5055489;28;45253;-76
2023/04/06 06:38:11;;;;;;;;;25.50;24.25;;;;;13.17;40.71;101222.03;5055586;28;45515;-74
2023/04/06 06:40:36;;;;;;;;;30.00;26.75;;;;;13.18;40.68;101214.97;5055310;28;45687;-75
2023/04/06 06:43:02;;;;;;;;;25.00;23.50;;;;;13.16;41.05;101222.06;5087403;27;45466;-74
2023/04/06 06:45:29;;;;;;;;;33.50;30.00;;;;;13.14;41.20;101216.81;5058945;28;45319;-74
2023/04/06 06:47:54;;;;;;;;;45.25;36.00;;;;;13.16;41.25;101219.44;5058315;28;45601;-63
2023/04/06 06:50:19;;;;;;;;;31.75;27.00;;;;;13.11;41.20;101219.50;5058031;28;46121;-77
2023/04/06 06:52:45;;;;;;;;;31.25;27.00;;;;;13.12;41.37;101215.09;5058035;28;45773;-77
2023/04/06 06:55:10;;;;;;;;;26.25;25.25;;;;;13.10;41.47;101219.53;5058140;28;45533;-75
2023/04/06 06:57:36;;;;;;;;;28.00;25.25;;;;;13.10;41.57;101224.81;5060017;28;45416;-76
2023/04/06 07:00:02;;;;;;;;;26.00;21.50;;;;;13.07;41.70;101217.81;5061741;28;45354;-76
2023/04/06 07:02:27;;;;;;;;;26.75;23.50;;;;;12.99;41.69;101212.66;5094016;27;45448;-76
2023/04/06 07:04:53;;;;;;;;;26.25;24.00;;;;;12.99;41.76;101220.59;5061141;28;45165;-75
2023/04/06 07:07:18;;;;;;;;;25.50;23.50;;;;;12.99;42.12;101210.03;5062115;28;45552;-76
2023/04/06 07:09:43;;;;;;;;;24.00;22.75;;;;;12.96;41.72;101212.69;5061807;28;46020;-77
2023/04/06 07:12:09;;;;;;;;;27.50;25.00;;;;;12.95;41.93;101205.69;5062071;28;45243;-76
2023/04/06 07:14:34;;;;;;;;;27.00;25.75;;;;;12.96;41.73;101210.06;5062229;28;45233;-76
2023/04/06 07:16:59;;;;;;;;;24.00;22.75;;;;;12.97;42.12;101208.31;5062100;28;45346;-76
2023/04/06 07:19:25;;;;;;;;;27.50;23.00;;;;;12.93;42.16;101196.94;5061479;28;45167;-78
2023/04/06 07:21:50;;;;;;;;;29.00;23.50;;;;;12.93;42.08;101199.59;5061849;28;45283;-77
2023/04/06 07:24:15;;;;;;;;;21.50;21.50;;;;;12.93;41.81;101204.84;5062009;28;45232;-76
2023/04/06 07:26:42;;;;;;;;;26.25;24.50;;;;;12.93;42.07;101207.50;5061795;28;45343;-76
2023/04/06 07:29:07;;;;;;;;;18.25;15.75;;;;;12.90;42.19;101191.69;5061776;28;45452;-76
2023/04/06 07:31:33;;;;;;;;;26.75;22.00;;;;;12.91;42.20;101203.13;5061620;28;45318;-75
2023/04/06 07:33:58;;;;;;;;;19.25;18.00;;;;;12.89;42.38;101203.13;5061798;28;45430;-75
2023/04/06 07:36:24;;;;;;;;;27.25;26.50;;;;;12.82;42.46;101198.88;5061467;28;45385;-76
2023/04/06 07:38:49;;;;;;;;;31.75;28.25;;;;;12.87;42.39;101210.22;5061589;28;47097;-76
2023/04/06 07:41:14;;;;;;;;;24.25;22.25;;;;;12.86;42.67;101211.13;5061456;28;45353;-77
2023/04/06 07:43:40;;;;;;;;;27.50;23.75;;;;;12.81;43.06;101205.06;5061670;28;45624;-76
2023/04/06 07:46:05;;;;;;;;;25.25;23.25;;;;;12.78;42.89;101215.63;5061663;28;45240;-75
2023/04/06 07:48:31;;;;;;;;;26.00;21.25;;;;;12.74;43.23;101208.66;5061372;28;45315;-76
2023/04/06 07:51:06;;;;;;;;;30.75;25.00;;;;;12.72;43.46;101207.84;5060901;28;45430;-76
2023/04/06 07:53:32;;;;;;;;;28.00;26.75;;;;;12.66;43.42;101214.94;5061489;28;45283;-76
2023/04/06 07:56:00;;;;;;;;;18.00;14.00;;;;;12.65;43.72;101210.56;5061017;28;45181;-76
2023/04/06 07:58:26;;;;;;;;;27.50;25.25;;;;;12.63;43.91;101215.00;5061157;28;45258;-75
2023/04/06 08:00:51;;;;;;;;;30.50;28.00;;;;;12.60;44.12;101216.78;5076809;27;45859;-75
2023/04/06 08:03:17;;;;;;;;;32.75;27.25;;;;;12.58;44.07;101216.81;5061374;28;45338;-75
2023/04/06 08:05:42;;;;;;;;;27.00;25.25;;;;;12.55;44.09;101211.59;5060822;28;45323;-74
2023/04/06 08:08:08;;;;;;;;;32.50;28.25;;;;;12.53;44.63;101208.13;5061039;28;45229;-75
2023/04/06 08:10:34;;;;;;;;;31.75;28.50;;;;;12.50;44.45;101208.16;5076533;28;45369;-75
2023/04/06 08:13:00;;;;;;;;;34.25;30.75;;;;;12.48;44.63;101212.59;5061221;28;45449;-74
2023/04/06 08:15:25;;;;;;;;;26.50;24.25;;;;;12.47;44.65;101209.06;5060839;28;45225;-74
2023/04/06 08:17:50;;;;;;;;;29.75;28.50;;;;;12.46;44.62;101207.31;5059568;28;46069;-75
2023/04/06 08:20:16;;;;;;;;;29.00;25.75;;;;;12.46;44.93;101209.09;5060413;28;45338;-75
2023/04/06 08:22:41;;;;;;;;;29.50;23.75;;;;;12.47;45.31;101209.06;5061037;28;45298;-74
2023/04/06 08:25:07;;;;;;;;;38.50;32.00;;;;;12.45;45.38;101210.88;5060675;28;45256;-74
2023/04/06 08:27:32;;;;;;;;;28.25;26.50;;;;;12.40;45.50;101201.28;5060675;28;46110;-74
2023/04/06 08:29:57;;;;;;;;;36.75;31.50;;;;;12.44;45.50;101205.59;5060645;28;45340;-74
2023/04/06 08:32:23;;;;;;;;;31.25;27.25;;;;;12.41;46.13;101203.03;5060895;28;45179;-74
2023/04/06 08:34:48;;;;;;;;;31.00;30.00;;;;;12.39;46.23;101210.97;5060426;28;45235;-73
2023/04/06 08:37:13;;;;;;;;;33.25;30.25;;;;;12.39;46.45;101215.34;5060541;28;45297;-73
2023/04/06 08:39:38;;;;;;;;;32.50;30.50;;;;;12.38;46.83;101216.22;5060374;28;45304;-74
2023/04/06 08:42:04;;;;;;;;;34.00;25.50;;;;;12.35;46.77;101220.66;5060797;28;45247;-73
2023/04/06 08:44:31;;;;;;;;;34.00;31.50;;;;;12.34;46.91;101216.28;5060483;28;45211;-73
2023/04/06 08:46:58;;;;;;;;;36.25;29.75;;;;;12.33;46.77;101216.31;5060331;28;46353;-73
2023/04/06 08:49:24;;;;;;;;;40.00;32.00;;;;;12.33;46.74;101225.06;5060095;28;45542;-74
2023/04/06 08:51:50;;;;;;;;;34.50;31.00;;;;;12.38;46.87;101229.41;5053290;28;45304;-74
2023/04/06 08:54:16;;;;;;;;;33.00;30.50;;;;;12.37;47.01;101227.69;5060142;28;45533;-73
2023/04/06 08:56:42;;;;;;;;;34.25;31.00;;;;;12.42;47.14;101220.59;5060312;28;46551;-73
2023/04/06 08:59:08;;;;;;;;;23.75;21.25;;;;;12.43;47.31;101230.25;5060210;28;45264;-73
2023/04/06 09:01:40;;;;;;;;;35.50;30.25;;;;;12.45;47.32;101234.59;5059341;28;45248;-73
2023/04/06 09:04:10;;;;;;;;;35.00;32.00;;;;;12.45;47.79;101237.22;5060261;28;45289;-73
2023/04/06 09:06:36;;;;;;;;;37.25;33.00;;;;;12.47;47.96;101237.19;5059458;28;47076;-73
2023/04/06 09:09:02;;;;;;;;;33.50;32.25;;;;;12.44;47.72;101240.75;5060301;28;45460;-73
2023/04/06 09:11:27;;;;;;;;;42.50;33.00;;;;;12.47;47.97;101238.06;5060171;28;45316;-74
2023/04/06 09:13:55;;;;;;;;;32.00;28.75;;;;;12.45;48.06;101238.97;5059019;28;45498;-74
2023/04/06 09:16:21;;;;;;;;;41.75;34.00;;;;;12.47;48.21;101245.09;5059876;28;46241;-73
2023/04/06 09:18:47;;;;;;;;;36.50;32.00;;;;;12.46;48.37;101235.44;5060139;28;45478;-73
2023/04/06 09:21:16;;;;;;;;;34.50;31.25;;;;;12.44;48.27;101226.69;5059930;28;45244;-73
2023/04/06 09:23:41;;;;;;;;;36.50;32.50;;;;;12.45;48.24;101215.25;5060250;28;45190;-72
2023/04/06 09:26:10;;;;;;;;;38.75;31.75;;;;;12.45;48.42;101218.78;5059843;28;45579;-72
2023/04/06 09:28:47;;;;;;;;;33.50;28.00;;;;;12.44;48.59;101218.78;5060056;28;45366;-73
2023/04/06 09:31:14;;;;;;;;;34.25;31.00;;;;;12.43;48.62;101227.59;5059997;28;45303;-73
2023/04/06 09:33:42;;;;;;;;;36.50;30.50;;;;;12.42;48.65;101231.13;5059922;28;45241;-72
2023/04/06 09:36:11;;;;;;;;;26.75;23.75;;;;;12.40;48.47;101235.53;5057942;28;47029;-73
2023/04/06 09:38:39;;;;;;;;;35.25;26.00;;;;;12.40;48.51;101246.09;5057932;28;45416;-74
2023/04/06 09:41:04;;;;;;;;;30.75;28.00;;;;;12.41;48.66;101245.19;5059653;28;45331;-76
2023/04/06 09:43:30;;;;;;;;;34.50;31.00;;;;;12.43;48.45;101248.69;5055184;28;45621;-76
2023/04/06 09:45:56;;;;;;;;;31.75;28.00;;;;;12.40;48.70;101246.09;5062479;28;46954;-74
2023/04/06 09:48:25;;;;;;;;;35.25;29.75;;;;;12.41;48.86;101250.47;5059412;28;45303;-74
2023/04/06 09:50:58;;;;;;;;;32.50;30.00;;;;;12.41;49.12;101240.78;5053665;28;45404;-73
2023/04/06 09:53:28;;;;;;;;;31.75;25.75;;;;;12.39;49.09;101241.69;5058287;28;45473;-73
2023/04/06 09:56:00;;;;;;;;;29.25;26.25;;;;;12.33;49.38;101237.41;5058001;28;48184;-74
2023/04/06 09:58:26;;;;;;;;;21.75;19.25;;;;;12.39;49.34;101247.84;5059116;28;45433;-76
2023/04/06 10:01:20;;;;;;;;;24.50;23.75;;;;;12.36;49.24;101232.06;5059026;28;45373;-76
2023/04/06 10:03:54;;;;;;;;;31.00;24.25;;;;;12.39;49.40;101225.88;5058616;27;45396;-74
2023/04/06 10:06:25;;;;;;;;;23.25;22.25;;;;;12.38;49.59;101232.94;5058961;28;46578;-73
2023/04/06 10:08:54;;;;;;;;;21.75;19.00;;;;;12.39;49.61;101247.84;5059399;28;45373;-74
2023/04/06 10:11:19;;;;;;;;;28.75;24.25;;;;;12.39;49.62;101247.84;5046930;28;45690;-76
2023/04/06 10:13:47;;;;;;;;;22.50;20.25;;;;;12.38;49.64;101246.09;5058814;28;45383;-72
2023/04/06 10:16:14;;;;;;;;;24.75;22.00;;;;;12.37;50.10;101243.50;5058637;28;46231;-72
2023/04/06 10:18:46;;;;;;;;;22.00;17.25;;;;;12.35;50.11;101247.03;5059085;28;45205;-76
2023/04/06 10:21:21;;;;;;;;;23.50;21.25;;;;;12.38;50.13;101254.00;5058644;28;45752;-75
2023/04/06 10:23:58;;;;;;;;;28.25;23.50;;;;;12.39;50.26;101246.97;5076724;28;45675;-74
2023/04/06 10:26:24;;;;;;;;;23.00;19.00;;;;;12.38;50.60;101240.84;5060634;28;46349;-73
2023/04/06 10:28:50;;;;;;;;;19.00;15.50;;;;;12.37;50.33;101240.88;5060632;28;45499;-73
2023/04/06 10:31:27;;;;;;;;;23.00;19.50;;;;;12.34;50.78;101240.00;5061004;28;45256;-72
2023/04/06 10:33:57;;;;;;;;;21.50;17.25;;;;;12.33;50.81;101238.25;5059930;28;45394;-74
2023/04/06 10:36:26;;;;;;;;;22.00;20.50;;;;;12.32;50.85;101247.03;5058187;28;46276;-75
2023/04/06 10:38:58;;;;;;;;;20.25;20.25;;;;;12.32;50.91;101257.59;5060731;28;45360;-74
2023/04/06 10:41:25;;;;;;;;;18.25;18.25;;;;;12.26;50.75;101241.00;5063473;28;45337;-72
2023/04/06 10:43:57;;;;;;;;;20.75;17.50;;;;;12.32;50.80;101252.31;5057686;28;45304;-72
2023/04/06 10:46:29;;;;;;;;;16.50;14.50;;;;;12.25;51.01;101242.78;5085813;27;47272;-71
2023/04/06 10:48:55;;;;;;;;;16.00;15.00;;;;;12.32;50.86;101248.81;5059452;28;45379;-72
2023/04/06 10:51:28;;;;;;;;;18.75;17.50;;;;;12.25;51.17;101231.34;5060337;28;45690;-74
2023/04/06 10:53:54;;;;;;;;;22.00;19.00;;;;;12.34;50.66;101252.31;5061347;28;45395;-72
2023/04/06 10:56:23;;;;;;;;;21.00;17.50;;;;;12.36;50.88;101253.16;5061099;28;45511;-71
2023/04/06 10:58:51;;;;;;;;;14.25;13.50;;;;;12.39;50.93;101252.25;5061467;28;45504;-72
2023/04/06 11:01:18;;;;;;;;;18.75;15.25;;;;;12.41;51.09;101256.59;5061808;28;45264;-73
2023/04/06 11:03:48;;;;;;;;;20.25;18.50;;;;;12.42;50.97;101260.13;5062053;28;45427;-73